Cummaquid, MA

4:31 AM EDT on October 26, 2014 (GMT -0400)
Cape Air EDC Building | Change Station
CLOSE
Current Station
Personal Weather Station
Location: Hyannis, MA
Elevation: 49 ft
Nearby Weather Stations

Elev 49 ft 41.67 °N, 70.29 °W | Updated 1 second ago

Overcast
Overcast
57.7 °F
Feels Like 57.7 °F
N
0.0
Wind Variable Wind from West
Gusts 3.1 mph

Today
High -- | Low -- °F
--% Chance of Precip.
Yesterday
High -- | Low -- °F
Precip. -- in
7:05 AM 5:43 PM
Waxing Crescent, 6% visible
Pressure 29.45 in
Visibility 10.0 miles
Clouds Mostly Cloudy 9000 ft
Overcast 11000 ft
Dew Point 46 °F
Humidity 64%
Rainfall 0.00 in
Snow Depth Not available.
UV 0 out of 12
Pollen 1.10 out of 12
Air Quality Not available.
Flu Activity Sporadic
METAR KHYA 260756Z 25004KT 10SM BKN090 OVC110 15/08 A2945 RMK AO2 SLP973 T01500083

More Conditions Fewer Conditions

Pressure 29.45 in
Visibility 10.0 miles
Clouds Mostly Cloudy 9000 ft
Overcast 11000 ft
Dew Point 46 °F
Humidity 64%
Rainfall 0.00 in
Snow Depth Not available.
UV 0 out of 12
Pollen 1.10 out of 12
Air Quality Not available.
Flu Activity Sporadic
METAR KHYA 260756Z 25004KT 10SM BKN090 OVC110 15/08 A2945 RMK AO2 SLP973 T01500083

More Conditions Fewer Conditions

10-Day Weather Forecast

Almanac

Astronomy

Oct. 26, 2014 Rise Set
Actual Time 7:05 AM EDT 5:43 PM EDT
Civil Twilight 6:37 AM EDT 6:12 PM EDT
Nautical Twilight 6:04 AM EDT 6:44 PM EDT
Astronomical Twilight 5:32 AM EDT 7:16 PM EDT
Moon 9:42 AM EDT 7:50 PM EDT
Length of Visible Light 11h 34m
Length of Day
10h 37m
Tomorrow will be 2m 33s shorter.
Waxing Crescent, 6% of the Moon is Illuminated
Today
Waxing Crescent
Oct 30
First Quarter
Nov 6
Full
Nov 14
Last Quarter
Nov 22
New

Today's Extremes

State Highs State Lows

Community

WunderPhotos

Upload Photos

1,765,127 photos uploaded!

Nearby

Air Quality

  Air Quality AQ Index Pollutant
Yesterday Good
OZONE
Sunday Good
PM2.5
Sunday Good
OZONE

Snow Depth

Station Depth Elevation
No new snow has been reported.

Earthquake Activity

City Distance Mag. Time & Date
No recent earthquake activity has been reported nearby.
Minimum magnitude displayed is 2.5.

Coastal Water Temperatures

Place Temperature
Woods Hole, MA 60.1 °F
Nantucket Island, MA 57.9 °F
Boston, MA 55.0 °F
Fall River, MA 60.1 °F

Nearby Weather Stations